sensor_id;sensor_type;location;lat;lon;timestamp;pressure;altitude;pressure_sealevel;temperature;humidity
36598;BME280;22607;49.550;11.940;2023-03-22T00:01:34;96686.22;;;9.98;100.00
36598;BME280;22607;49.550;11.940;2023-03-22T00:04:01;96681.50;;;9.93;100.00
36598;BME280;22607;49.550;11.940;2023-03-22T00:06:28;96678.97;;;9.68;100.00
36598;BME280;22607;49.550;11.940;2023-03-22T00:08:55;96666.25;;;9.89;100.00
36598;BME280;22607;49.550;11.940;2023-03-22T00:11:22;96671.00;;;9.93;100.00
36598;BME280;22607;49.550;11.940;2023-03-22T00:13:52;96670.63;;;9.96;100.00
36598;BME280;22607;49.550;11.940;2023-03-22T00:16:19;96663.47;;;9.90;100.00
36598;BME280;22607;49.550;11.940;2023-03-22T00:18:46;96660.69;;;9.92;100.00
36598;BME280;22607;49.550;11.940;2023-03-22T00:21:14;96657.03;;;10.01;100.00
36598;BME280;22607;49.550;11.940;2023-03-22T00:23:41;96660.78;;;10.07;100.00
36598;BME280;22607;49.550;11.940;2023-03-22T00:26:09;96659.59;;;9.78;100.00
36598;BME280;22607;49.550;11.940;2023-03-22T00:28:36;96657.59;;;9.88;100.00
36598;BME280;22607;49.550;11.940;2023-03-22T00:31:03;96649.06;;;9.86;100.00
36598;BME280;22607;49.550;11.940;2023-03-22T00:33:31;96651.00;;;9.92;100.00
36598;BME280;22607;49.550;11.940;2023-03-22T00:36:00;96661.25;;;9.79;100.00
36598;BME280;22607;49.550;11.940;2023-03-22T00:38:28;96655.75;;;9.89;100.00
36598;BME280;22607;49.550;11.940;2023-03-22T00:41:14;96658.06;;;9.92;100.00
36598;BME280;22607;49.550;11.940;2023-03-22T00:43:41;96658.09;;;9.83;100.00
36598;BME280;22607;49.550;11.940;2023-03-22T00:46:09;96651.66;;;9.94;100.00
36598;BME280;22607;49.550;11.940;2023-03-22T00:48:36;96652.97;;;9.90;100.00
36598;BME280;22607;49.550;11.940;2023-03-22T00:51:03;96654.72;;;9.98;100.00
36598;BME280;22607;49.550;11.940;2023-03-22T00:53:31;96650.22;;;9.83;100.00
36598;BME280;22607;49.550;11.940;2023-03-22T00:56:03;96650.75;;;9.79;100.00
36598;BME280;22607;49.550;11.940;2023-03-22T00:58:29;96650.59;;;10.04;100.00
36598;BME280;22607;49.550;11.940;2023-03-22T01:00:56;96641.75;;;10.05;100.00
36598;BME280;22607;49.550;11.940;2023-03-22T01:03:23;96634.44;;;9.92;100.00
36598;BME280;22607;49.550;11.940;2023-03-22T01:05:51;96626.94;;;9.80;100.00
36598;BME280;22607;49.550;11.940;2023-03-22T01:08:22;96635.16;;;9.85;100.00
36598;BME280;22607;49.550;11.940;2023-03-22T01:10:49;96636.47;;;9.81;100.00
36598;BME280;22607;49.550;11.940;2023-03-22T01:13:16;96639.34;;;9.63;100.00
36598;BME280;22607;49.550;11.940;2023-03-22T01:15:43;96642.66;;;9.49;100.00
36598;BME280;22607;49.550;11.940;2023-03-22T01:18:10;96632.78;;;9.59;100.00
36598;BME280;22607;49.550;11.940;2023-03-22T01:20:36;96641.47;;;9.68;100.00
36598;BME280;22607;49.550;11.940;2023-03-22T01:23:03;96635.91;;;9.63;100.00
36598;BME280;22607;49.550;11.940;2023-03-22T01:25:30;96632.66;;;9.52;100.00
36598;BME280;22607;49.550;11.940;2023-03-22T01:27:56;96631.56;;;9.47;100.00
36598;BME280;22607;49.550;11.940;2023-03-22T01:30:23;96633.13;;;9.64;100.00
36598;BME280;22607;49.550;11.940;2023-03-22T01:32:50;96622.56;;;9.72;100.00
36598;BME280;22607;49.550;11.940;2023-03-22T01:35:16;96627.16;;;9.79;100.00
36598;BME280;22607;49.550;11.940;2023-03-22T01:37:43;96617.59;;;9.86;100.00
36598;BME280;22607;49.550;11.940;2023-03-22T01:40:11;96621.19;;;9.85;100.00
36598;BME280;22607;49.550;11.940;2023-03-22T01:42:38;96611.00;;;9.90;100.00
36598;BME280;22607;49.550;11.940;2023-03-22T01:47:44;96604.59;;;9.93;100.00
36598;BME280;22607;49.550;11.940;2023-03-22T01:50:12;96608.72;;;9.87;100.00
36598;BME280;22607;49.550;11.940;2023-03-22T01:52:39;96610.78;;;9.68;100.00
36598;BME280;22607;49.550;11.940;2023-03-22T01:55:06;96606.94;;;9.56;100.00
36598;BME280;22607;49.550;11.940;2023-03-22T01:57:34;96602.59;;;9.71;100.00
36598;BME280;22607;49.550;11.940;2023-03-22T02:00:07;96596.97;;;9.43;100.00
36598;BME280;22607;49.550;11.940;2023-03-22T02:02:36;96590.94;;;9.42;100.00
36598;BME280;22607;49.550;11.940;2023-03-22T02:05:03;96597.97;;;9.42;100.00
36598;BME280;22607;49.550;11.940;2023-03-22T02:07:30;96593.88;;;9.39;100.00
36598;BME280;22607;49.550;11.940;2023-03-22T02:09:57;96588.34;;;9.34;100.00
36598;BME280;22607;49.550;11.940;2023-03-22T02:12:38;96590.94;;;9.42;100.00
36598;BME280;22607;49.550;11.940;2023-03-22T02:15:22;96587.31;;;9.03;100.00
36598;BME280;22607;49.550;11.940;2023-03-22T02:18:20;96585.66;;;9.11;100.00
36598;BME280;22607;49.550;11.940;2023-03-22T02:29:06;96582.91;;;8.96;100.00
36598;BME280;22607;49.550;11.940;2023-03-22T02:34:36;96581.31;;;8.70;100.00
36598;BME280;22607;49.550;11.940;2023-03-22T02:51:04;96565.94;;;8.33;100.00
36598;BME280;22607;49.550;11.940;2023-03-22T02:53:43;96572.50;;;8.62;100.00
36598;BME280;22607;49.550;11.940;2023-03-22T02:56:37;96567.59;;;8.68;100.00
36598;BME280;22607;49.550;11.940;2023-03-22T02:59:07;96573.47;;;8.61;100.00
36598;BME280;22607;49.550;11.940;2023-03-22T03:01:44;96574.78;;;8.40;100.00
36598;BME280;22607;49.550;11.940;2023-03-22T03:04:25;96576.75;;;8.13;100.00
36598;BME280;22607;49.550;11.940;2023-03-22T03:06:58;96568.91;;;8.38;100.00
36598;BME280;22607;49.550;11.940;2023-03-22T03:09:28;96570.06;;;8.36;100.00
36598;BME280;22607;49.550;11.940;2023-03-22T03:11:55;96581.50;;;8.18;100.00
36598;BME280;22607;49.550;11.940;2023-03-22T03:14:31;96571.69;;;8.37;100.00
36598;BME280;22607;49.550;11.940;2023-03-22T03:22:49;96575.13;;;8.12;100.00
36598;BME280;22607;49.550;11.940;2023-03-22T03:25:38;96569.56;;;8.16;100.00
36598;BME280;22607;49.550;11.940;2023-03-22T03:28:15;96562.53;;;8.24;100.00
36598;BME280;22607;49.550;11.940;2023-03-22T03:30:56;96567.25;;;8.04;100.00
36598;BME280;22607;49.550;11.940;2023-03-22T03:33:26;96562.69;;;7.98;100.00
36598;BME280;22607;49.550;11.940;2023-03-22T03:36:00;96562.03;;;7.96;100.00
36598;BME280;22607;49.550;11.940;2023-03-22T03:38:32;96565.59;;;7.86;100.00
36598;BME280;22607;49.550;11.940;2023-03-22T03:41:02;96568.22;;;7.70;100.00
36598;BME280;22607;49.550;11.940;2023-03-22T03:43:30;96568.81;;;7.47;100.00
36598;BME280;22607;49.550;11.940;2023-03-22T03:45:58;96571.97;;;7.67;100.00
36598;BME280;22607;49.550;11.940;2023-03-22T03:48:31;96576.69;;;7.64;100.00
36598;BME280;22607;49.550;11.940;2023-03-22T03:51:00;96572.75;;;7.68;100.00
36598;BME280;22607;49.550;11.940;2023-03-22T03:53:28;96565.38;;;7.46;100.00
36598;BME280;22607;49.550;11.940;2023-03-22T03:55:54;96565.28;;;7.73;100.00
36598;BME280;22607;49.550;11.940;2023-03-22T03:58:21;96566.09;;;7.73;100.00
36598;BME280;22607;49.550;11.940;2023-03-22T04:00:48;96571.97;;;7.67;100.00
36598;BME280;22607;49.550;11.940;2023-03-22T04:03:15;96569.13;;;7.44;100.00
36598;BME280;22607;49.550;11.940;2023-03-22T04:05:42;96570.78;;;7.45;100.00
36598;BME280;22607;49.550;11.940;2023-03-22T04:08:09;96572.75;;;7.51;100.00
36598;BME280;22607;49.550;11.940;2023-03-22T04:10:35;96583.19;;;7.51;100.00
36598;BME280;22607;49.550;11.940;2023-03-22T04:13:02;96584.84;;;7.17;100.00
36598;BME280;22607;49.550;11.940;2023-03-22T04:15:29;96588.16;;;7.28;100.00
36598;BME280;22607;49.550;11.940;2023-03-22T04:17:55;96589.06;;;7.45;100.00
36598;BME280;22607;49.550;11.940;2023-03-22T04:20:22;96588.88;;;7.38;100.00
36598;BME280;22607;49.550;11.940;2023-03-22T04:22:51;96586.03;;;7.23;100.00
36598;BME280;22607;49.550;11.940;2023-03-22T04:25:17;96584.59;;;7.29;100.00
36598;BME280;22607;49.550;11.940;2023-03-22T04:27:45;96589.00;;;7.28;100.00
36598;BME280;22607;49.550;11.940;2023-03-22T04:30:16;96587.88;;;6.96;100.00
36598;BME280;22607;49.550;11.940;2023-03-22T04:32:48;96588.91;;;7.03;100.00
36598;BME280;22607;49.550;11.940;2023-03-22T04:35:15;96587.00;;;6.87;100.00
36598;BME280;22607;49.550;11.940;2023-03-22T04:37:42;96594.84;;;6.87;100.00
36598;BME280;22607;49.550;11.940;2023-03-22T04:40:09;96590.91;;;6.83;100.00
36598;BME280;22607;49.550;11.940;2023-03-22T04:42:43;96586.47;;;6.75;100.00
36598;BME280;22607;49.550;11.940;2023-03-22T04:45:11;96587.59;;;6.73;100.00
36598;BME280;22607;49.550;11.940;2023-03-22T04:47:38;96586.59;;;6.74;100.00
36598;BME280;22607;49.550;11.940;2023-03-22T04:50:06;96583.44;;;6.62;100.00
36598;BME280;22607;49.550;11.940;2023-03-22T04:52:33;96596.13;;;6.56;100.00
36598;BME280;22607;49.550;11.940;2023-03-22T04:54:59;96591.63;;;6.67;100.00
36598;BME280;22607;49.550;11.940;2023-03-22T04:57:26;96590.63;;;6.68;100.00
36598;BME280;22607;49.550;11.940;2023-03-22T04:59:52;96584.00;;;6.74;100.00
36598;BME280;22607;49.550;11.940;2023-03-22T05:02:19;96589.44;;;6.62;100.00
36598;BME280;22607;49.550;11.940;2023-03-22T05:04:45;96582.41;;;6.54;100.00
36598;BME280;22607;49.550;11.940;2023-03-22T05:07:12;96582.34;;;6.46;100.00
36598;BME280;22607;49.550;11.940;2023-03-22T05:09:38;96586.75;;;6.46;100.00
36598;BME280;22607;49.550;11.940;2023-03-22T05:12:05;96587.13;;;6.33;100.00
36598;BME280;22607;49.550;11.940;2023-03-22T05:14:32;96591.06;;;6.55;100.00
36598;BME280;22607;49.550;11.940;2023-03-22T05:16:58;96582.75;;;6.60;100.00
36598;BME280;22607;49.550;11.940;2023-03-22T05:19:25;96585.34;;;6.60;100.00
36598;BME280;22607;49.550;11.940;2023-03-22T05:21:51;96590.38;;;6.53;100.00
36598;BME280;22607;49.550;11.940;2023-03-22T05:24:24;96597.69;;;6.49;100.00
36598;BME280;22607;49.550;11.940;2023-03-22T05:26:50;96599.44;;;6.40;100.00
36598;BME280;22607;49.550;11.940;2023-03-22T05:29:19;96591.84;;;6.29;100.00
36598;BME280;22607;49.550;11.940;2023-03-22T05:31:47;96596.81;;;6.40;100.00
36598;BME280;22607;49.550;11.940;2023-03-22T05:34:13;96602.53;;;6.44;100.00
36598;BME280;22607;49.550;11.940;2023-03-22T05:36:40;96601.81;;;6.34;100.00
36598;BME280;22607;49.550;11.940;2023-03-22T05:39:06;96602.06;;;6.04;100.00
36598;BME280;22607;49.550;11.940;2023-03-22T05:41:33;96594.59;;;6.09;100.00
36598;BME280;22607;49.550;11.940;2023-03-22T05:44:02;96602.25;;;6.47;100.00
36598;BME280;22607;49.550;11.940;2023-03-22T05:46:28;96592.22;;;6.61;100.00
36598;BME280;22607;49.550;11.940;2023-03-22T05:48:55;96591.31;;;6.70;100.00
36598;BME280;22607;49.550;11.940;2023-03-22T05:51:21;96585.56;;;6.66;100.00
36598;BME280;22607;49.550;11.940;2023-03-22T05:53:51;96590.72;;;6.32;100.00
36598;BME280;22607;49.550;11.940;2023-03-22T05:56:18;96604.06;;;6.28;100.00
36598;BME280;22607;49.550;11.940;2023-03-22T05:58:49;96593.31;;;6.32;100.00
36598;BME280;22607;49.550;11.940;2023-03-22T06:01:17;96584.09;;;6.64;100.00
36598;BME280;22607;49.550;11.940;2023-03-22T06:03:46;96588.13;;;6.58;100.00
36598;BME280;22607;49.550;11.940;2023-03-22T06:06:13;96582.34;;;6.46;100.00
36598;BME280;22607;49.550;11.940;2023-03-22T06:08:41;96597.44;;;6.61;100.00
36598;BME280;22607;49.550;11.940;2023-03-22T06:11:08;96584.28;;;6.70;100.00
36598;BME280;22607;49.550;11.940;2023-03-22T06:13:35;96587.03;;;6.95;100.00
36598;BME280;22607;49.550;11.940;2023-03-22T06:16:03;96586.81;;;6.80;100.00
36598;BME280;22607;49.550;11.940;2023-03-22T06:18:31;96573.53;;;7.00;100.00
36598;BME280;22607;49.550;11.940;2023-03-22T06:20:58;96576.03;;;7.18;100.00
36598;BME280;22607;49.550;11.940;2023-03-22T06:23:25;96571.22;;;7.40;100.00
36598;BME280;22607;49.550;11.940;2023-03-22T06:25:52;96577.31;;;7.57;100.00
36598;BME280;22607;49.550;11.940;2023-03-22T06:28:18;96573.94;;;7.82;100.00
36598;BME280;22607;49.550;11.940;2023-03-22T06:30:45;96576.28;;;8.18;100.00
36598;BME280;22607;49.550;11.940;2023-03-22T06:33:11;96576.56;;;8.40;100.00
36598;BME280;22607;49.550;11.940;2023-03-22T06:35:38;96576.56;;;8.82;100.00
36598;BME280;22607;49.550;11.940;2023-03-22T06:38:05;96577.91;;;9.17;100.00
36598;BME280;22607;49.550;11.940;2023-03-22T06:40:31;96572.34;;;9.21;100.00
36598;BME280;22607;49.550;11.940;2023-03-22T06:42:58;96582.00;;;9.60;100.00
36598;BME280;22607;49.550;11.940;2023-03-22T06:45:30;96585.94;;;9.64;100.00
36598;BME280;22607;49.550;11.940;2023-03-22T06:47:59;96592.63;;;9.67;100.00
36598;BME280;22607;49.550;11.940;2023-03-22T06:50:27;96578.91;;;9.88;100.00
36598;BME280;22607;49.550;11.940;2023-03-22T06:52:53;96584.56;;;10.00;100.00
36598;BME280;22607;49.550;11.940;2023-03-22T06:55:20;96577.72;;;10.37;100.00
36598;BME280;22607;49.550;11.940;2023-03-22T06:57:47;96585.78;;;10.89;97.90
36598;BME280;22607;49.550;11.940;2023-03-22T07:00:14;96581.88;;;11.46;93.76
36598;BME280;22607;49.550;11.940;2023-03-22T07:02:41;96567.94;;;11.67;91.09
36598;BME280;22607;49.550;11.940;2023-03-22T07:05:07;96576.56;;;11.98;90.33
36598;BME280;22607;49.550;11.940;2023-03-22T07:07:34;96575.16;;;12.17;88.32
36598;BME280;22607;49.550;11.940;2023-03-22T07:10:01;96573.78;;;12.21;86.27
36598;BME280;22607;49.550;11.940;2023-03-22T07:12:27;96569.16;;;12.80;82.56
36598;BME280;22607;49.550;11.940;2023-03-22T07:14:54;96565.75;;;13.29;79.26
36598;BME280;22607;49.550;11.940;2023-03-22T07:17:20;96567.53;;;13.57;79.13
36598;BME280;22607;49.550;11.940;2023-03-22T07:19:47;96564.13;;;13.76;78.13
36598;BME280;22607;49.550;11.940;2023-03-22T07:22:14;96553.03;;;14.01;76.34
36598;BME280;22607;49.550;11.940;2023-03-22T07:24:40;96549.78;;;14.20;75.45
36598;BME280;22607;49.550;11.940;2023-03-22T07:27:21;96556.31;;;14.44;73.83
36598;BME280;22607;49.550;11.940;2023-03-22T07:29:48;96558.31;;;14.89;71.26
36598;BME280;22607;49.550;11.940;2023-03-22T07:32:14;96553.72;;;15.23;70.22
36598;BME280;22607;49.550;11.940;2023-03-22T07:34:42;96556.53;;;15.35;70.50
36598;BME280;22607;49.550;11.940;2023-03-22T07:37:09;96553.75;;;15.69;68.10
36598;BME280;22607;49.550;11.940;2023-03-22T07:39:36;96558.22;;;15.30;69.06
36598;BME280;22607;49.550;11.940;2023-03-22T07:42:02;96551.97;;;16.02;67.88
36598;BME280;22607;49.550;11.940;2023-03-22T07:44:29;96547.44;;;16.35;67.12
36598;BME280;22607;49.550;11.940;2023-03-22T07:46:56;96543.13;;;16.40;67.65
36598;BME280;22607;49.550;11.940;2023-03-22T07:49:23;96556.81;;;16.05;68.67
36598;BME280;22607;49.550;11.940;2023-03-22T07:51:49;96550.84;;;16.17;70.08
36598;BME280;22607;49.550;11.940;2023-03-22T07:54:16;96560.28;;;16.06;70.32
36598;BME280;22607;49.550;11.940;2023-03-22T07:56:59;96550.31;;;16.77;66.25
36598;BME280;22607;49.550;11.940;2023-03-22T07:59:26;96554.50;;;17.11;63.15
36598;BME280;22607;49.550;11.940;2023-03-22T08:01:52;96556.22;;;17.05;63.55
36598;BME280;22607;49.550;11.940;2023-03-22T08:04:20;96558.25;;;17.40;62.42
36598;BME280;22607;49.550;11.940;2023-03-22T08:06:47;96557.16;;;17.48;62.96
36598;BME280;22607;49.550;11.940;2023-03-22T08:09:15;96557.72;;;17.69;62.54
36598;BME280;22607;49.550;11.940;2023-03-22T08:11:42;96558.03;;;17.91;61.08
36598;BME280;22607;49.550;11.940;2023-03-22T08:14:09;96554.56;;;17.91;61.47
36598;BME280;22607;49.550;11.940;2023-03-22T08:16:35;96552.91;;;18.08;60.56
36598;BME280;22607;49.550;11.940;2023-03-22T08:19:03;96551.31;;;17.89;58.81
36598;BME280;22607;49.550;11.940;2023-03-22T08:21:30;96562.63;;;18.15;57.68
36598;BME280;22607;49.550;11.940;2023-03-22T08:23:56;96551.53;;;17.87;58.44
36598;BME280;22607;49.550;11.940;2023-03-22T08:26:23;96544.59;;;18.17;58.05
36598;BME280;22607;49.550;11.940;2023-03-22T08:28:49;96543.03;;;17.97;58.89
36598;BME280;22607;49.550;11.940;2023-03-22T08:31:16;96547.53;;;18.51;56.08
36598;BME280;22607;49.550;11.940;2023-03-22T08:33:43;96540.94;;;18.42;55.26
36598;BME280;22607;49.550;11.940;2023-03-22T08:36:13;96540.03;;;18.60;55.00
36598;BME280;22607;49.550;11.940;2023-03-22T08:38:40;96542.31;;;18.32;53.38
36598;BME280;22607;49.550;11.940;2023-03-22T08:41:07;96540.13;;;18.41;53.53
36598;BME280;22607;49.550;11.940;2023-03-22T08:43:34;96540.91;;;18.18;54.68
36598;BME280;22607;49.550;11.940;2023-03-22T08:46:00;96540.72;;;18.55;52.79
36598;BME280;22607;49.550;11.940;2023-03-22T08:48:27;96533.31;;;18.93;52.96
36598;BME280;22607;49.550;11.940;2023-03-22T08:50:57;96533.91;;;18.05;53.40
36598;BME280;22607;49.550;11.940;2023-03-22T08:53:23;96534.22;;;18.27;53.00
36598;BME280;22607;49.550;11.940;2023-03-22T08:55:50;96537.78;;;18.21;52.01
36598;BME280;22607;49.550;11.940;2023-03-22T08:58:16;96525.06;;;17.80;52.75
36598;BME280;22607;49.550;11.940;2023-03-22T09:00:46;96523.13;;;18.30;52.11
36598;BME280;22607;49.550;11.940;2023-03-22T09:03:15;96515.75;;;18.68;51.33
36598;BME280;22607;49.550;11.940;2023-03-22T09:05:43;96521.06;;;18.80;51.80
36598;BME280;22607;49.550;11.940;2023-03-22T09:08:10;96517.59;;;18.68;51.41
36598;BME280;22607;49.550;11.940;2023-03-22T09:10:48;96515.66;;;18.63;51.56
36598;BME280;22607;49.550;11.940;2023-03-22T09:13:18;96511.31;;;18.86;50.44
36598;BME280;22607;49.550;11.940;2023-03-22T09:15:45;96507.94;;;19.26;48.45
36598;BME280;22607;49.550;11.940;2023-03-22T09:18:13;96504.44;;;19.26;49.61
36598;BME280;22607;49.550;11.940;2023-03-22T09:20:39;96507.19;;;19.43;48.78
36598;BME280;22607;49.550;11.940;2023-03-22T09:23:06;96503.75;;;19.60;47.30
36598;BME280;22607;49.550;11.940;2023-03-22T09:25:33;96495.53;;;19.61;47.01
36598;BME280;22607;49.550;11.940;2023-03-22T09:27:59;96498.53;;;19.36;48.52
36598;BME280;22607;49.550;11.940;2023-03-22T09:30:26;96493.75;;;19.50;48.58
36598;BME280;22607;49.550;11.940;2023-03-22T09:32:53;96500.00;;;19.44;47.74
36598;BME280;22607;49.550;11.940;2023-03-22T09:35:19;96486.00;;;19.65;46.91
36598;BME280;22607;49.550;11.940;2023-03-22T09:37:46;96481.09;;;19.91;47.20
36598;BME280;22607;49.550;11.940;2023-03-22T09:40:14;96487.03;;;19.47;47.88
36598;BME280;22607;49.550;11.940;2023-03-22T09:42:45;96476.47;;;19.99;46.58
36598;BME280;22607;49.550;11.940;2023-03-22T09:45:22;96477.56;;;19.68;43.91
36598;BME280;22607;49.550;11.940;2023-03-22T09:47:57;96472.91;;;19.18;46.83
36598;BME280;22607;49.550;11.940;2023-03-22T09:50:28;96462.03;;;19.65;45.85
36598;BME280;22607;49.550;11.940;2023-03-22T09:52:55;96461.75;;;19.79;44.54
36598;BME280;22607;49.550;11.940;2023-03-22T09:55:28;96459.75;;;19.57;45.28
36598;BME280;22607;49.550;11.940;2023-03-22T10:06:17;96453.69;;;19.91;46.08
36598;BME280;22607;49.550;11.940;2023-03-22T10:09:08;96445.31;;;19.24;45.81
36598;BME280;22607;49.550;11.940;2023-03-22T10:11:48;96453.88;;;19.55;44.82
36598;BME280;22607;49.550;11.940;2023-03-22T10:14:33;96449.97;;;20.09;44.23
36598;BME280;22607;49.550;11.940;2023-03-22T10:17:05;96441.66;;;19.88;44.73
36598;BME280;22607;49.550;11.940;2023-03-22T10:19:37;96439.44;;;20.54;43.79
36598;BME280;22607;49.550;11.940;2023-03-22T10:22:10;96441.84;;;20.55;43.93
36598;BME280;22607;49.550;11.940;2023-03-22T10:24:42;96445.19;;;20.45;43.36
36598;BME280;22607;49.550;11.940;2023-03-22T10:27:15;96441.09;;;20.20;43.06
36598;BME280;22607;49.550;11.940;2023-03-22T10:29:49;96440.19;;;20.32;42.06
36598;BME280;22607;49.550;11.940;2023-03-22T10:32:19;96448.09;;;20.44;41.09
36598;BME280;22607;49.550;11.940;2023-03-22T10:34:47;96450.91;;;19.68;43.07
36598;BME280;22607;49.550;11.940;2023-03-22T10:37:30;96444.56;;;20.04;41.61
36598;BME280;22607;49.550;11.940;2023-03-22T10:40:01;96442.44;;;19.25;43.54
36598;BME280;22607;49.550;11.940;2023-03-22T10:42:34;96441.75;;;20.11;42.83
36598;BME280;22607;49.550;11.940;2023-03-22T10:45:12;96439.81;;;20.06;42.74
36598;BME280;22607;49.550;11.940;2023-03-22T10:47:47;96432.19;;;20.32;43.17
36598;BME280;22607;49.550;11.940;2023-03-22T10:50:21;96425.72;;;19.59;44.01
36598;BME280;22607;49.550;11.940;2023-03-22T10:53:05;96422.13;;;20.00;45.35
36598;BME280;22607;49.550;11.940;2023-03-22T10:55:38;96429.94;;;20.24;43.32
36598;BME280;22607;49.550;11.940;2023-03-22T10:58:15;96426.06;;;19.80;42.25
36598;BME280;22607;49.550;11.940;2023-03-22T11:00:52;96422.69;;;20.02;43.02
36598;BME280;22607;49.550;11.940;2023-03-22T11:03:29;96429.94;;;19.89;42.20
36598;BME280;22607;49.550;11.940;2023-03-22T11:06:02;96428.50;;;19.99;42.94
36598;BME280;22607;49.550;11.940;2023-03-22T11:08:51;96423.84;;;20.06;41.77
36598;BME280;22607;49.550;11.940;2023-03-22T11:11:22;96432.91;;;19.93;43.12
36598;BME280;22607;49.550;11.940;2023-03-22T11:14:03;96431.25;;;20.04;41.28
36598;BME280;22607;49.550;11.940;2023-03-22T11:16:52;96426.38;;;19.84;42.48
36598;BME280;22607;49.550;11.940;2023-03-22T11:19:41;96425.31;;;19.67;44.79
36598;BME280;22607;49.550;11.940;2023-03-22T11:22:32;96425.16;;;19.74;44.57
36598;BME280;22607;49.550;11.940;2023-03-22T11:25:00;96411.03;;;19.91;44.24
36598;BME280;22607;49.550;11.940;2023-03-22T11:27:30;96415.44;;;19.51;44.99
36598;BME280;22607;49.550;11.940;2023-03-22T11:30:22;96408.78;;;19.65;45.67
36598;BME280;22607;49.550;11.940;2023-03-22T11:33:08;96420.53;;;19.23;43.50
36598;BME280;22607;49.550;11.940;2023-03-22T11:35:44;96391.72;;;19.66;42.94
36598;BME280;22607;49.550;11.940;2023-03-22T11:38:41;96387.78;;;19.52;43.77
36598;BME280;22607;49.550;11.940;2023-03-22T11:41:26;96386.97;;;19.86;44.88
36598;BME280;22607;49.550;11.940;2023-03-22T11:43:54;96381.31;;;19.65;43.90
36598;BME280;22607;49.550;11.940;2023-03-22T11:46:22;96377.94;;;19.70;43.34
36598;BME280;22607;49.550;11.940;2023-03-22T11:48:50;96384.28;;;19.34;44.38
36598;BME280;22607;49.550;11.940;2023-03-22T11:51:26;96373.38;;;19.19;44.19
36598;BME280;22607;49.550;11.940;2023-03-22T11:56:47;96362.41;;;19.15;44.40
36598;BME280;22607;49.550;11.940;2023-03-22T12:01:47;96367.31;;;19.23;44.67
36598;BME280;22607;49.550;11.940;2023-03-22T12:04:18;96358.53;;;19.23;43.06
36598;BME280;22607;49.550;11.940;2023-03-22T12:06:46;96354.44;;;19.03;43.09
36598;BME280;22607;49.550;11.940;2023-03-22T12:12:03;96354.19;;;19.34;45.72
36598;BME280;22607;49.550;11.940;2023-03-22T12:14:46;96342.56;;;19.23;44.41
36598;BME280;22607;49.550;11.940;2023-03-22T12:17:37;96349.44;;;19.36;42.96
36598;BME280;22607;49.550;11.940;2023-03-22T12:22:42;96356.44;;;19.25;42.01
36598;BME280;22607;49.550;11.940;2023-03-22T12:25:15;96348.66;;;19.06;43.37
36598;BME280;22607;49.550;11.940;2023-03-22T12:27:46;96343.13;;;18.96;43.01
36598;BME280;22607;49.550;11.940;2023-03-22T12:30:24;96336.41;;;18.64;42.53
36598;BME280;22607;49.550;11.940;2023-03-22T12:33:17;96327.72;;;18.69;42.74
36598;BME280;22607;49.550;11.940;2023-03-22T12:35:46;96337.94;;;18.89;44.22
36598;BME280;22607;49.550;11.940;2023-03-22T12:38:36;96332.00;;;18.99;41.90
36598;BME280;22607;49.550;11.940;2023-03-22T12:41:09;96327.59;;;19.05;42.46
36598;BME280;22607;49.550;11.940;2023-03-22T12:46:13;96325.84;;;19.27;41.01
36598;BME280;22607;49.550;11.940;2023-03-22T12:48:45;96321.19;;;19.35;42.96
36598;BME280;22607;49.550;11.940;2023-03-22T12:51:13;96319.00;;;19.14;42.58
36598;BME280;22607;49.550;11.940;2023-03-22T12:54:00;96329.34;;;19.45;42.32
36598;BME280;22607;49.550;11.940;2023-03-22T12:56:48;96322.47;;;19.15;43.12
36598;BME280;22607;49.550;11.940;2023-03-22T12:59:18;96316.03;;;19.62;43.53
36598;BME280;22607;49.550;11.940;2023-03-22T13:01:58;96319.81;;;19.32;41.32
36598;BME280;22607;49.550;11.940;2023-03-22T13:07:14;96305.59;;;19.61;41.68
36598;BME280;22607;49.550;11.940;2023-03-22T13:09:49;96300.13;;;19.67;42.32
36598;BME280;22607;49.550;11.940;2023-03-22T13:30:28;96296.41;;;19.17;39.66
36598;BME280;22607;49.550;11.940;2023-03-22T13:33:00;96292.53;;;19.25;42.69
36598;BME280;22607;49.550;11.940;2023-03-22T13:35:48;96291.59;;;19.31;42.80
36598;BME280;22607;49.550;11.940;2023-03-22T13:38:25;96288.75;;;19.21;43.27
36598;BME280;22607;49.550;11.940;2023-03-22T13:48:50;96297.34;;;18.94;41.31
36598;BME280;22607;49.550;11.940;2023-03-22T13:56:57;96294.97;;;19.26;41.98
36598;BME280;22607;49.550;11.940;2023-03-22T14:02:16;96281.25;;;19.52;42.87
36598;BME280;22607;49.550;11.940;2023-03-22T14:04:48;96288.97;;;19.71;42.01
36598;BME280;22607;49.550;11.940;2023-03-22T14:07:24;96274.94;;;19.75;40.52
36598;BME280;22607;49.550;11.940;2023-03-22T14:09:55;96268.69;;;19.47;41.90
36598;BME280;22607;49.550;11.940;2023-03-22T14:12:23;96263.09;;;19.32;40.60
36598;BME280;22607;49.550;11.940;2023-03-22T14:15:02;96277.91;;;18.93;41.79
36598;BME280;22607;49.550;11.940;2023-03-22T14:17:33;96265.38;;;19.06;41.19
36598;BME280;22607;49.550;11.940;2023-03-22T14:20:03;96271.53;;;18.94;43.16
36598;BME280;22607;49.550;11.940;2023-03-22T14:22:38;96276.06;;;18.94;41.60
36598;BME280;22607;49.550;11.940;2023-03-22T14:25:06;96284.84;;;18.65;41.31
36598;BME280;22607;49.550;11.940;2023-03-22T14:27:34;96273.69;;;18.80;40.93
36598;BME280;22607;49.550;11.940;2023-03-22T14:30:01;96281.94;;;18.67;40.59
36598;BME280;22607;49.550;11.940;2023-03-22T14:32:28;96275.91;;;18.42;41.58
36598;BME280;22607;49.550;11.940;2023-03-22T14:38:00;96267.00;;;18.36;41.16
36598;BME280;22607;49.550;11.940;2023-03-22T14:40:31;96272.41;;;18.13;41.64
36598;BME280;22607;49.550;11.940;2023-03-22T14:45:42;96270.22;;;18.50;41.07